createdAt,value
2018-04-01T00:00:35.700Z,961.47
2018-04-01T00:01:35.683Z,961.50
2018-04-01T00:02:35.673Z,961.52
2018-04-01T00:03:35.661Z,961.52
2018-04-01T00:04:35.644Z,961.51
2018-04-01T00:05:35.625Z,961.54
2018-04-01T00:06:35.609Z,961.53
2018-04-01T00:07:35.603Z,961.56
2018-04-01T00:08:35.577Z,961.58
2018-04-01T00:09:35.561Z,961.56
2018-04-01T00:10:35.547Z,961.61
2018-04-01T00:11:35.533Z,961.61
2018-04-01T00:12:35.516Z,961.61
2018-04-01T00:13:35.508Z,961.60
2018-04-01T00:14:35.488Z,961.62
2018-04-01T00:15:35.472Z,961.64
2018-04-01T00:16:35.459Z,961.65
2018-04-01T00:17:35.451Z,961.69
2018-04-01T00:18:35.435Z,961.69
2018-04-01T00:19:35.418Z,961.70
2018-04-01T00:20:35.402Z,961.75
2018-04-01T00:21:35.383Z,961.77
2018-04-01T00:22:35.376Z,961.74
2018-04-01T00:23:35.353Z,961.80
2018-04-01T00:24:35.337Z,961.75
2018-04-01T00:25:35.330Z,961.79
2018-04-01T00:26:35.310Z,961.81
2018-04-01T00:27:35.294Z,961.82
2018-04-01T00:28:35.277Z,961.86
2018-04-01T00:29:35.266Z,961.89
2018-04-01T00:30:35.249Z,961.87
2018-04-01T00:31:35.233Z,961.90
2018-04-01T00:32:35.223Z,961.93
2018-04-01T00:33:35.206Z,961.93
2018-04-01T00:34:35.192Z,961.95
2018-04-01T00:35:35.180Z,961.98
2018-04-01T00:36:35.160Z,961.95
2018-04-01T00:37:35.149Z,961.94
2018-04-01T00:38:35.135Z,961.96
2018-04-01T00:39:35.113Z,961.97
2018-04-01T00:40:35.099Z,961.94
2018-04-01T00:41:35.087Z,961.97
2018-04-01T00:42:35.069Z,961.96
2018-04-01T00:43:35.056Z,961.97
2018-04-01T00:44:35.040Z,961.96
2018-04-01T00:45:35.026Z,961.96
2018-04-01T00:46:35.009Z,962.00
2018-04-01T00:47:34.997Z,961.99
2018-04-01T00:48:34.979Z,961.99
2018-04-01T00:49:34.970Z,962.02
2018-04-01T00:50:34.951Z,962.06
2018-04-01T00:51:34.934Z,962.05
2018-04-01T00:52:34.921Z,962.07
2018-04-01T00:53:34.903Z,962.09
2018-04-01T00:54:34.889Z,962.15
2018-04-01T00:55:34.877Z,962.15
2018-04-01T00:56:34.866Z,962.17
2018-04-01T00:57:34.845Z,962.17
2018-04-01T00:58:34.829Z,962.16
2018-04-01T00:59:34.816Z,962.19
2018-04-01T01:00:34.801Z,962.22
2018-04-01T01:01:34.784Z,962.23
2018-04-01T01:02:34.779Z,962.23
2018-04-01T01:03:34.757Z,962.22
2018-04-01T01:04:34.743Z,962.20
2018-04-01T01:05:34.731Z,962.21
2018-04-01T01:06:34.710Z,962.24
2018-04-01T01:07:34.695Z,962.21
2018-04-01T01:08:34.679Z,962.18
2018-04-01T01:09:34.664Z,962.18
2018-04-01T01:10:34.650Z,962.18
2018-04-01T01:11:34.637Z,962.21
2018-04-01T01:12:34.620Z,962.24
2018-04-01T01:13:34.605Z,962.29
2018-04-01T01:14:34.603Z,962.22
2018-04-01T01:15:34.580Z,962.26
2018-04-01T01:16:34.569Z,962.24
2018-04-01T01:17:34.547Z,962.19
2018-04-01T01:18:34.533Z,962.29
2018-04-01T01:19:34.518Z,962.21
2018-04-01T01:20:34.502Z,962.30
2018-04-01T01:21:34.494Z,962.27
2018-04-01T01:22:34.473Z,962.25
2018-04-01T01:23:34.459Z,962.26
2018-04-01T01:24:34.442Z,962.26
2018-04-01T01:25:34.427Z,962.25
2018-04-01T01:26:34.411Z,962.30
2018-04-01T01:27:34.399Z,962.31
2018-04-01T01:28:34.385Z,962.32
2018-04-01T01:29:34.400Z,962.26
2018-04-01T01:30:34.361Z,962.32
2018-04-01T01:31:34.348Z,962.28
2018-04-01T01:32:34.322Z,962.28
2018-04-01T01:33:34.308Z,962.29
2018-04-01T01:34:34.301Z,962.28
2018-04-01T01:35:34.282Z,962.31
2018-04-01T01:36:34.270Z,962.30
2018-04-01T01:37:34.250Z,962.33
2018-04-01T01:38:34.240Z,962.32
2018-04-01T01:39:34.219Z,962.37
2018-04-01T01:40:34.207Z,962.33
2018-04-01T01:41:34.190Z,962.35
2018-04-01T01:42:34.175Z,962.33
2018-04-01T01:43:34.169Z,962.36
2018-04-01T01:44:34.146Z,962.33
2018-04-01T01:45:34.137Z,962.35
2018-04-01T01:46:34.116Z,962.35
2018-04-01T01:47:34.109Z,962.34
2018-04-01T01:48:34.090Z,962.34
2018-04-01T01:49:34.077Z,962.35
2018-04-01T01:50:34.060Z,962.39
2018-04-01T01:51:34.040Z,962.37
2018-04-01T01:52:34.032Z,962.35
2018-04-01T01:53:34.017Z,962.35
2018-04-01T01:54:34.010Z,962.31
2018-04-01T01:55:33.981Z,962.35
2018-04-01T01:56:33.974Z,962.35
2018-04-01T01:57:33.954Z,962.35
2018-04-01T01:58:33.939Z,962.39
2018-04-01T01:59:33.925Z,962.41
2018-04-01T02:00:33.905Z,962.40
2018-04-01T02:01:33.892Z,962.45
2018-04-01T02:02:33.878Z,962.49
2018-04-01T02:03:33.868Z,962.49
2018-04-01T02:04:33.848Z,962.51
2018-04-01T02:05:33.837Z,962.55
2018-04-01T02:06:33.822Z,962.57
2018-04-01T02:07:33.803Z,962.58
2018-04-01T02:08:33.793Z,962.58
2018-04-01T02:09:33.772Z,962.63
2018-04-01T02:10:33.759Z,962.59
2018-04-01T02:11:33.752Z,962.62
2018-04-01T02:12:33.732Z,962.60
2018-04-01T02:13:33.712Z,962.65
2018-04-01T02:14:33.704Z,962.63
2018-04-01T02:15:33.686Z,962.64
2018-04-01T02:16:33.676Z,962.68
2018-04-01T02:17:33.656Z,962.66
2018-04-01T02:18:33.640Z,962.67
2018-04-01T02:19:33.625Z,962.73
2018-04-01T02:20:33.609Z,962.74
2018-04-01T02:21:33.602Z,962.75
2018-04-01T02:22:33.578Z,962.73
2018-04-01T02:23:33.572Z,962.75
2018-04-01T02:24:33.558Z,962.78
2018-04-01T02:25:33.546Z,962.81
2018-04-01T02:26:33.527Z,962.82
2018-04-01T02:27:33.514Z,962.83
2018-04-01T02:28:33.490Z,962.83
2018-04-01T02:29:33.481Z,962.83
2018-04-01T02:30:33.461Z,962.83
2018-04-01T02:31:33.539Z,962.82
2018-04-01T02:32:33.446Z,962.81
2018-04-01T02:33:33.422Z,962.86
2018-04-01T02:34:33.402Z,962.84
2018-04-01T02:35:33.388Z,962.91
2018-04-01T02:36:33.377Z,962.88
2018-04-01T02:37:33.378Z,962.91
2018-04-01T02:38:33.351Z,962.93
2018-04-01T02:39:33.333Z,962.94
2018-04-01T02:40:33.315Z,962.91
2018-04-01T02:41:33.300Z,962.92
2018-04-01T02:42:33.296Z,962.93
2018-04-01T02:43:33.270Z,962.96
2018-04-01T02:44:33.257Z,962.94
2018-04-01T02:45:33.240Z,962.90
2018-04-01T02:46:33.224Z,962.97
2018-04-01T02:47:33.211Z,962.98
2018-04-01T02:48:33.197Z,962.99
2018-04-01T02:49:33.183Z,963.00
2018-04-01T02:50:33.170Z,963.00
2018-04-01T02:51:33.152Z,963.03
2018-04-01T02:52:33.137Z,962.99
2018-04-01T02:53:33.123Z,963.06
2018-04-01T02:54:33.110Z,963.06
2018-04-01T02:55:33.099Z,963.08
2018-04-01T02:56:33.085Z,963.06
2018-04-01T02:57:33.077Z,963.09
2018-04-01T02:58:33.048Z,963.11
2018-04-01T02:59:33.033Z,963.13
2018-04-01T03:00:33.019Z,963.14
2018-04-01T03:01:33.007Z,963.17
2018-04-01T03:02:32.992Z,963.20
2018-04-01T03:03:32.982Z,963.17
2018-04-01T03:04:32.986Z,963.18
2018-04-01T03:05:32.949Z,963.23
2018-04-01T03:06:32.942Z,963.24
2018-04-01T03:07:32.915Z,963.26
2018-04-01T03:08:32.906Z,963.29
2018-04-01T03:09:32.898Z,963.26
2018-04-01T03:10:32.877Z,963.30
2018-04-01T03:11:32.858Z,963.30
2018-04-01T03:12:32.849Z,963.29
2018-04-01T03:13:32.830Z,963.31
2018-04-01T03:14:32.814Z,963.32
2018-04-01T03:15:32.800Z,963.31
2018-04-01T03:16:32.783Z,963.34
2018-04-01T03:17:32.778Z,963.31
2018-04-01T03:18:32.756Z,963.38
2018-04-01T03:19:32.744Z,963.35
2018-04-01T03:20:32.732Z,963.37
2018-04-01T03:21:32.718Z,963.39
2018-04-01T03:22:32.701Z,963.39
2018-04-01T03:23:32.686Z,963.38
2018-04-01T03:24:32.668Z,963.41
2018-04-01T03:25:32.652Z,963.43
2018-04-01T03:26:32.641Z,963.42
2018-04-01T03:27:32.634Z,963.41
2018-04-01T03:28:32.615Z,963.44
2018-04-01T03:29:32.597Z,963.47
2018-04-01T03:30:32.580Z,963.50
2018-04-01T03:31:32.565Z,963.46
2018-04-01T03:32:32.550Z,963.47
2018-04-01T03:33:32.539Z,963.52
2018-04-01T03:34:32.521Z,963.54
2018-04-01T03:35:32.505Z,963.56
2018-04-01T03:36:32.490Z,963.55
2018-04-01T03:37:32.477Z,963.58
2018-04-01T03:38:32.468Z,963.60
2018-04-01T03:39:32.453Z,963.61
2018-04-01T03:40:32.432Z,963.60
2018-04-01T03:41:32.418Z,963.66
2018-04-01T03:42:32.409Z,963.64
2018-04-01T03:43:32.388Z,963.65
2018-04-01T03:44:32.372Z,963.68
2018-04-01T03:45:32.358Z,963.68
2018-04-01T03:46:32.344Z,963.67
2018-04-01T03:47:32.337Z,963.63
2018-04-01T03:48:32.320Z,963.66
2018-04-01T03:49:32.308Z,963.70
2018-04-01T03:50:32.293Z,963.68
2018-04-01T03:51:32.271Z,963.69
2018-04-01T03:52:32.261Z,963.74
2018-04-01T03:53:32.242Z,963.72
2018-04-01T03:54:32.227Z,963.74
2018-04-01T03:55:32.213Z,963.74
2018-04-01T03:56:32.205Z,963.77
2018-04-01T03:57:32.191Z,963.78
2018-04-01T03:58:32.171Z,963.76
2018-04-01T03:59:32.155Z,963.79
2018-04-01T04:00:32.143Z,963.74
2018-04-01T04:01:32.129Z,963.79
2018-04-01T04:02:32.110Z,963.76
2018-04-01T04:03:32.103Z,963.81
2018-04-01T04:04:32.080Z,963.82
2018-04-01T04:05:32.072Z,963.84
2018-04-01T04:06:32.050Z,963.76
2018-04-01T04:07:32.043Z,963.79
2018-04-01T04:08:32.024Z,963.84
2018-04-01T04:09:32.011Z,963.84
2018-04-01T04:10:31.998Z,963.84
2018-04-01T04:11:31.982Z,963.84
2018-04-01T04:12:31.961Z,963.87
2018-04-01T04:13:31.947Z,963.84
2018-04-01T04:14:31.933Z,963.84
2018-04-01T04:15:31.919Z,963.86
2018-04-01T04:16:31.902Z,963.88
2018-04-01T04:17:31.944Z,963.89
2018-04-01T04:18:31.881Z,963.89
2018-04-01T04:19:31.857Z,963.95
2018-04-01T04:20:31.846Z,963.93
2018-04-01T04:21:31.842Z,963.96
2018-04-01T04:22:31.820Z,964.01
2018-04-01T04:23:31.806Z,964.07
2018-04-01T04:24:31.786Z,964.04
2018-04-01T04:25:31.778Z,964.05
2018-04-01T04:26:31.755Z,964.05
2018-04-01T04:27:31.740Z,964.10
2018-04-01T04:28:31.727Z,964.13
2018-04-01T04:29:31.713Z,964.18
2018-04-01T04:30:31.698Z,964.17
2018-04-01T04:31:31.682Z,964.16
2018-04-01T04:32:31.666Z,964.16
2018-04-01T04:33:31.654Z,964.21
2018-04-01T04:34:31.637Z,964.18
2018-04-01T04:35:31.630Z,964.20
2018-04-01T04:36:31.659Z,964.19
2018-04-01T04:37:31.593Z,964.18
2018-04-01T04:38:31.592Z,964.21
2018-04-01T04:39:31.569Z,964.20
2018-04-01T04:40:31.547Z,964.26
2018-04-01T04:41:31.533Z,964.25
2018-04-01T04:42:31.520Z,964.26
2018-04-01T04:43:31.503Z,964.21
2018-04-01T04:44:31.489Z,964.27
2018-04-01T04:45:31.478Z,964.28
2018-04-01T04:46:31.462Z,964.28
2018-04-01T04:47:31.450Z,964.34
2018-04-01T04:48:31.437Z,964.33
2018-04-01T04:49:31.415Z,964.37
2018-04-01T04:50:31.405Z,964.35
2018-04-01T04:51:31.392Z,964.37
2018-04-01T04:52:31.374Z,964.38
2018-04-01T04:53:31.364Z,964.34
2018-04-01T04:54:31.342Z,964.36
2018-04-01T04:55:31.331Z,964.40
2018-04-01T04:56:31.318Z,964.35
2018-04-01T04:57:31.302Z,964.39
2018-04-01T04:58:31.284Z,964.41
2018-04-01T04:59:31.268Z,964.46
2018-04-01T05:00:31.251Z,964.52
2018-04-01T05:01:31.238Z,964.51
2018-04-01T05:02:31.230Z,964.51
2018-04-01T05:03:31.210Z,964.52
2018-04-01T05:04:31.194Z,964.51
2018-04-01T05:05:31.184Z,964.52
2018-04-01T05:06:31.169Z,964.54
2018-04-01T05:07:31.149Z,964.57
2018-04-01T05:08:31.135Z,964.60
2018-04-01T05:09:31.123Z,964.61
2018-04-01T05:10:31.111Z,964.60
2018-04-01T05:11:31.100Z,964.63
2018-04-01T05:12:31.082Z,964.62
2018-04-01T05:13:31.078Z,964.63
2018-04-01T05:14:31.069Z,964.64
2018-04-01T05:15:31.041Z,964.67
2018-04-01T05:16:31.026Z,964.62
2018-04-01T05:17:31.014Z,964.70
2018-04-01T05:18:31.004Z,964.67
2018-04-01T05:19:30.978Z,964.70
2018-04-01T05:20:30.962Z,964.72
2018-04-01T05:21:30.948Z,964.73
2018-04-01T05:22:30.933Z,964.71
2018-04-01T05:23:30.915Z,964.75
2018-04-01T05:24:30.902Z,964.77
2018-04-01T05:25:30.885Z,964.80
2018-04-01T05:26:30.875Z,964.86
2018-04-01T05:27:30.859Z,964.88
2018-04-01T05:28:30.839Z,964.90
2018-04-01T05:29:30.825Z,964.92
2018-04-01T05:30:30.809Z,964.95
2018-04-01T05:31:30.795Z,964.90
2018-04-01T05:32:30.788Z,964.92
2018-04-01T05:33:30.764Z,964.97
2018-04-01T05:34:30.750Z,964.96
2018-04-01T05:35:30.742Z,964.95
2018-04-01T05:36:30.719Z,964.97
2018-04-01T05:37:30.708Z,965.00
2018-04-01T05:38:30.691Z,965.03
2018-04-01T05:39:30.682Z,965.02
2018-04-01T05:40:30.661Z,965.03
2018-04-01T05:41:30.646Z,965.05
2018-04-01T05:42:30.637Z,965.03
2018-04-01T05:43:30.616Z,965.01
2018-04-01T05:44:30.609Z,965.04
2018-04-01T05:45:30.593Z,965.04
2018-04-01T05:46:30.578Z,965.10
2018-04-01T05:47:30.563Z,965.11
2018-04-01T05:48:30.547Z,965.15
2018-04-01T05:49:30.528Z,965.17
2018-04-01T05:50:30.514Z,965.18
2018-04-01T05:51:30.535Z,965.23
2018-04-01T05:52:30.485Z,965.21
2018-04-01T05:53:30.469Z,965.25
2018-04-01T05:54:30.457Z,965.30
2018-04-01T05:55:30.438Z,965.29
2018-04-01T05:56:30.429Z,965.38
2018-04-01T05:57:30.410Z,965.34
2018-04-01T05:58:30.394Z,965.40
2018-04-01T05:59:30.387Z,965.43
2018-04-01T06:00:30.376Z,965.40
2018-04-01T06:01:30.352Z,965.40
2018-04-01T06:02:30.337Z,965.39
2018-04-01T06:03:30.320Z,965.39
2018-04-01T06:04:30.307Z,965.42
2018-04-01T06:05:30.298Z,965.40
2018-04-01T06:06:30.282Z,965.43
2018-04-01T06:07:30.268Z,965.42
2018-04-01T06:08:30.256Z,965.45
2018-04-01T06:09:30.232Z,965.45
2018-04-01T06:10:30.223Z,965.48
2018-04-01T06:11:30.204Z,965.48
2018-04-01T06:12:30.199Z,965.51
2018-04-01T06:13:30.179Z,965.54
2018-04-01T06:14:30.203Z,965.57
2018-04-01T06:15:30.154Z,965.62
2018-04-01T06:16:30.134Z,965.59
2018-04-01T06:17:30.117Z,965.61
2018-04-01T06:18:30.101Z,965.66
2018-04-01T06:19:30.087Z,965.67
2018-04-01T06:20:30.069Z,965.66
2018-04-01T06:21:30.061Z,965.65
2018-04-01T06:22:30.049Z,965.66
2018-04-01T06:23:30.031Z,965.64
2018-04-01T06:24:30.021Z,965.66
2018-04-01T06:25:30.003Z,965.70
2018-04-01T06:26:29.981Z,965.70
2018-04-01T06:27:29.968Z,965.68
2018-04-01T06:28:29.955Z,965.68
2018-04-01T06:29:29.940Z,965.74
2018-04-01T06:30:29.926Z,965.75
2018-04-01T06:31:29.917Z,965.76
2018-04-01T06:32:29.912Z,965.72
2018-04-01T06:33:29.887Z,965.75
2018-04-01T06:34:29.868Z,965.75
2018-04-01T06:35:29.870Z,965.72
2018-04-01T06:36:29.841Z,965.79
2018-04-01T06:37:29.828Z,965.85
2018-04-01T06:38:29.806Z,965.84
2018-04-01T06:39:29.800Z,965.86
2018-04-01T06:40:29.784Z,965.91
2018-04-01T06:41:29.765Z,965.93
2018-04-01T06:42:29.752Z,965.91
2018-04-01T06:43:29.736Z,965.95
2018-04-01T06:44:29.721Z,965.99
2018-04-01T06:45:29.720Z,965.97
2018-04-01T06:46:29.695Z,965.98
2018-04-01T06:47:29.679Z,965.98
2018-04-01T06:48:29.673Z,965.99
2018-04-01T06:49:29.650Z,965.99
2018-04-01T06:50:29.636Z,965.95
2018-04-01T06:51:29.624Z,966.05
2018-04-01T06:52:29.607Z,965.98
2018-04-01T06:53:29.594Z,965.96
2018-04-01T06:54:29.579Z,965.94
2018-04-01T06:55:29.565Z,965.96
2018-04-01T06:56:29.551Z,965.99
2018-04-01T06:57:29.540Z,965.97
2018-04-01T06:58:29.523Z,965.98
2018-04-01T06:59:29.507Z,966.01
2018-04-01T07:00:29.491Z,966.07
2018-04-01T07:01:29.480Z,966.08
2018-04-01T07:02:29.512Z,966.07
2018-04-01T07:03:29.452Z,966.10
2018-04-01T07:04:29.437Z,966.12
2018-04-01T07:05:29.423Z,966.17
2018-04-01T07:06:29.409Z,966.16
2018-04-01T07:07:29.398Z,966.15
2018-04-01T07:08:29.386Z,966.14
2018-04-01T07:09:29.366Z,966.18
2018-04-01T07:10:29.359Z,966.20
2018-04-01T07:11:29.339Z,966.26
2018-04-01T07:12:29.328Z,966.26
2018-04-01T07:13:29.309Z,966.27
2018-04-01T07:14:29.296Z,966.28
2018-04-01T07:15:29.284Z,966.30
2018-04-01T07:16:29.272Z,966.32
2018-04-01T07:17:29.274Z,966.29
2018-04-01T07:18:29.246Z,966.31
2018-04-01T07:19:29.226Z,966.36
2018-04-01T07:20:29.212Z,966.36
2018-04-01T07:21:29.198Z,966.39
2018-04-01T07:22:29.185Z,966.34
2018-04-01T07:23:29.172Z,966.36
2018-04-01T07:24:29.162Z,966.37
2018-04-01T07:25:29.141Z,966.34
2018-04-01T07:26:29.128Z,966.36
2018-04-01T07:27:29.114Z,966.34
2018-04-01T07:28:29.101Z,966.38
2018-04-01T07:29:29.096Z,966.42
2018-04-01T07:30:29.073Z,966.41
2018-04-01T07:31:29.065Z,966.41
2018-04-01T07:32:29.047Z,966.41
2018-04-01T07:33:29.039Z,966.42
2018-04-01T07:34:29.020Z,966.44
2018-04-01T07:35:29.005Z,966.44
2018-04-01T07:36:28.991Z,966.46
2018-04-01T07:37:28.985Z,966.45
2018-04-01T07:38:28.965Z,966.47
2018-04-01T07:39:28.956Z,966.49
2018-04-01T07:40:28.945Z,966.48
2018-04-01T07:41:28.927Z,966.49
2018-04-01T07:42:28.913Z,966.50
2018-04-01T07:43:28.900Z,966.53
2018-04-01T07:44:28.889Z,966.57
2018-04-01T07:45:28.874Z,966.57
2018-04-01T07:46:28.861Z,966.58
2018-04-01T07:47:28.853Z,966.54
2018-04-01T07:48:28.833Z,966.58
2018-04-01T07:49:28.821Z,966.62
2018-04-01T07:50:28.807Z,966.61
2018-04-01T07:51:28.803Z,966.64
2018-04-01T07:52:28.785Z,966.61
2018-04-01T07:53:28.775Z,966.62
2018-04-01T07:54:28.758Z,966.67
2018-04-01T07:55:28.743Z,966.67
2018-04-01T07:56:28.736Z,966.62
2018-04-01T07:57:28.716Z,966.65
2018-04-01T07:58:28.703Z,966.67
2018-04-01T07:59:28.699Z,966.62
2018-04-01T08:00:28.678Z,966.71
2018-04-01T08:01:28.671Z,966.67
2018-04-01T08:02:28.655Z,966.75
2018-04-01T08:03:28.640Z,966.75
2018-04-01T08:04:28.632Z,966.71
2018-04-01T08:05:28.615Z,966.82
2018-04-01T08:06:28.609Z,966.78
2018-04-01T08:07:28.601Z,966.75
2018-04-01T08:08:28.582Z,966.75
2018-04-01T08:09:28.564Z,966.74
2018-04-01T08:10:28.552Z,966.76
2018-04-01T08:11:28.536Z,966.78
2018-04-01T08:12:28.528Z,966.76
2018-04-01T08:13:28.521Z,966.74
2018-04-01T08:14:28.503Z,966.79
2018-04-01T08:15:28.493Z,966.78
2018-04-01T08:16:28.478Z,966.78
2018-04-01T08:17:28.469Z,966.72
2018-04-01T08:18:28.452Z,966.80
2018-04-01T08:19:28.437Z,966.84
2018-04-01T08:20:28.420Z,966.78
2018-04-01T08:21:28.406Z,966.83
2018-04-01T08:22:28.423Z,966.79
2018-04-01T08:23:28.392Z,966.82
2018-04-01T08:24:28.368Z,966.79
2018-04-01T08:25:28.355Z,966.83
2018-04-01T08:26:28.352Z,966.81
2018-04-01T08:27:28.336Z,966.81
2018-04-01T08:28:28.331Z,966.78
2018-04-01T08:29:28.304Z,966.84
2018-04-01T08:30:28.294Z,966.79
2018-04-01T08:31:28.276Z,966.82
2018-04-01T08:32:28.305Z,966.84
2018-04-01T08:33:28.271Z,966.85
2018-04-01T08:34:28.242Z,966.89
2018-04-01T08:35:28.233Z,966.88
2018-04-01T08:36:28.215Z,966.92
2018-04-01T08:37:28.204Z,966.91
2018-04-01T08:38:28.184Z,966.92
2018-04-01T08:39:28.379Z,966.92
2018-04-01T08:40:28.165Z,966.96
2018-04-01T08:41:28.168Z,966.94
2018-04-01T08:42:28.138Z,967.02
2018-04-01T08:43:28.150Z,966.97
2018-04-01T08:44:28.131Z,966.96
2018-04-01T08:45:28.114Z,967.00
2018-04-01T08:46:28.113Z,966.97
2018-04-01T08:47:28.065Z,967.00
2018-04-01T08:48:28.058Z,967.05
2018-04-01T08:49:28.064Z,967.03
2018-04-01T08:51:28.013Z,967.06
2018-04-01T08:52:28.006Z,967.04
2018-04-01T08:53:27.988Z,967.12
2018-04-01T08:54:28.001Z,967.11
2018-04-01T08:55:27.995Z,967.11
2018-04-01T08:56:27.954Z,967.14
2018-04-01T08:57:27.961Z,967.20
2018-04-01T08:58:27.937Z,967.18
2018-04-01T08:59:28.053Z,967.22
2018-04-01T09:00:27.896Z,967.20
2018-04-01T09:01:27.889Z,967.28
2018-04-01T09:02:27.869Z,967.26
2018-04-01T09:03:27.856Z,967.26
2018-04-01T09:04:27.849Z,967.28
2018-04-01T09:05:27.831Z,967.30
2018-04-01T09:06:27.820Z,967.31
2018-04-01T09:07:27.837Z,967.30
2018-04-01T09:08:27.803Z,967.32
2018-04-01T09:09:27.782Z,967.38
2018-04-01T09:10:27.822Z,967.43
2018-04-01T09:11:27.760Z,967.45
2018-04-01T09:12:27.751Z,967.39
2018-04-01T09:13:27.757Z,967.43
2018-04-01T09:14:27.745Z,967.44
2018-04-01T09:15:27.707Z,967.44
2018-04-01T09:16:28.022Z,967.46
2018-04-01T09:17:27.689Z,967.45
2018-04-01T09:18:27.662Z,967.42
2018-04-01T09:19:27.660Z,967.43
2018-04-01T09:20:27.644Z,967.43
2018-04-01T09:21:27.625Z,967.35
2018-04-01T09:22:27.611Z,967.43
2018-04-01T09:23:27.603Z,967.44
2018-04-01T09:24:27.904Z,967.46
2018-04-01T09:25:27.578Z,967.44
2018-04-01T09:26:27.576Z,967.50
2018-04-01T09:27:27.551Z,967.42
2018-04-01T09:28:27.530Z,967.45
2018-04-01T09:29:27.574Z,967.42
2018-04-01T09:30:27.517Z,967.47
2018-04-01T09:31:27.501Z,967.49
2018-04-01T09:32:27.522Z,967.45
2018-04-01T09:33:27.479Z,967.44
2018-04-01T09:34:27.457Z,967.48
2018-04-01T09:35:27.448Z,967.49
2018-04-01T09:36:27.427Z,967.46
2018-04-01T09:37:27.417Z,967.51
2018-04-01T09:38:27.420Z,967.54
2018-04-01T09:39:27.390Z,967.52
2018-04-01T09:40:27.380Z,967.54
2018-04-01T09:41:27.405Z,967.55
2018-04-01T09:42:27.370Z,967.49
2018-04-01T09:43:27.361Z,967.48
2018-04-01T09:44:27.359Z,967.49
2018-04-01T09:45:27.314Z,967.48
2018-04-01T09:46:27.308Z,967.50
2018-04-01T09:47:27.292Z,967.51
2018-04-01T09:48:27.280Z,967.56
2018-04-01T09:49:27.277Z,967.53
2018-04-01T09:50:27.270Z,967.59
2018-04-01T09:51:27.244Z,967.57
2018-04-01T09:52:27.235Z,967.54
2018-04-01T09:53:27.228Z,967.52
2018-04-01T09:54:27.232Z,967.56
2018-04-01T09:55:27.199Z,967.60
2018-04-01T09:56:27.190Z,967.60
2018-04-01T09:57:27.185Z,967.60
2018-04-01T09:58:27.178Z,967.61
2018-04-01T09:59:27.162Z,967.56
2018-04-01T10:00:27.135Z,967.67
2018-04-01T10:01:27.131Z,967.75
2018-04-01T10:02:27.113Z,967.75
2018-04-01T10:03:27.102Z,967.79
2018-04-01T10:04:27.107Z,967.84
2018-04-01T10:05:27.066Z,967.83
2018-04-01T10:06:27.055Z,967.90
2018-04-01T10:07:27.051Z,967.84
2018-04-01T10:08:27.034Z,967.91
2018-04-01T10:09:27.021Z,967.92
2018-04-01T10:10:27.012Z,967.91
2018-04-01T10:11:26.996Z,967.91
2018-04-01T10:12:26.990Z,967.87
2018-04-01T10:13:26.975Z,967.93
2018-04-01T10:14:26.958Z,967.88
2018-04-01T10:15:26.947Z,967.94
2018-04-01T10:16:26.928Z,967.90
2018-04-01T10:17:26.919Z,967.96
2018-04-01T10:18:26.910Z,967.97
2018-04-01T10:19:26.895Z,967.93
2018-04-01T10:20:26.877Z,968.00
2018-04-01T10:21:26.869Z,968.02
2018-04-01T10:22:26.854Z,968.03
2018-04-01T10:23:26.839Z,968.01
2018-04-01T10:24:26.836Z,968.03
2018-04-01T10:25:26.822Z,967.98
2018-04-01T10:26:26.805Z,967.99
2018-04-01T10:27:26.795Z,968.02
2018-04-01T10:28:26.783Z,967.93
2018-04-01T10:29:26.771Z,967.96
2018-04-01T10:30:26.761Z,967.97
2018-04-01T10:31:26.753Z,967.95
2018-04-01T10:32:26.731Z,967.95
2018-04-01T10:33:26.719Z,967.99
2018-04-01T10:34:26.706Z,967.94
2018-04-01T10:35:26.701Z,967.93
2018-04-01T10:36:26.693Z,967.93
2018-04-01T10:37:26.673Z,967.98
2018-04-01T10:38:26.664Z,967.95
2018-04-01T10:39:26.652Z,967.92
2018-04-01T10:40:26.643Z,967.91
2018-04-01T10:41:26.624Z,967.95
2018-04-01T10:42:26.613Z,967.93
2018-04-01T10:43:26.625Z,967.86
2018-04-01T10:44:26.596Z,967.84
2018-04-01T10:45:26.578Z,967.84
2018-04-01T10:46:26.568Z,967.84
2018-04-01T10:47:26.557Z,967.87
2018-04-01T10:48:26.545Z,967.93
2018-04-01T10:49:26.539Z,967.89
2018-04-01T10:50:26.524Z,967.92
2018-04-01T10:51:26.512Z,967.90
2018-04-01T10:52:26.500Z,967.81
2018-04-01T10:53:26.496Z,967.93
2018-04-01T10:54:26.478Z,967.97
2018-04-01T10:55:26.474Z,967.85
2018-04-01T10:56:26.456Z,967.83
2018-04-01T10:57:26.445Z,967.93
2018-04-01T10:58:26.442Z,967.92
2018-04-01T10:59:26.423Z,967.96
2018-04-01T11:00:26.410Z,967.97
2018-04-01T11:01:26.400Z,967.95
2018-04-01T11:02:26.389Z,968.04
2018-04-01T11:03:26.379Z,968.13
2018-04-01T11:04:26.366Z,968.04
2018-04-01T11:05:26.357Z,968.09
2018-04-01T11:06:26.349Z,968.09
2018-04-01T11:07:26.339Z,968.20
2018-04-01T11:08:26.323Z,968.21
2018-04-01T11:09:26.311Z,968.20
2018-04-01T11:10:26.299Z,968.33
2018-04-01T11:11:26.315Z,968.31
2018-04-01T11:12:26.276Z,968.29
2018-04-01T11:13:26.265Z,968.33
2018-04-01T11:14:26.253Z,968.27
2018-04-01T11:15:26.240Z,968.24
2018-04-01T11:16:26.232Z,968.35
2018-04-01T11:17:26.215Z,968.22
2018-04-01T11:18:26.207Z,968.41
2018-04-01T11:19:26.192Z,968.40
2018-04-01T11:20:26.186Z,968.37
2018-04-01T11:21:26.174Z,968.34
2018-04-01T11:22:26.166Z,968.31
2018-04-01T11:23:26.145Z,968.39
2018-04-01T11:24:26.132Z,968.41
2018-04-01T11:25:26.120Z,968.49
2018-04-01T11:26:26.120Z,968.45
2018-04-01T11:27:26.096Z,968.43
2018-04-01T11:28:26.088Z,968.37
2018-04-01T11:29:26.071Z,968.53
2018-04-01T11:30:26.059Z,968.54
2018-04-01T11:31:26.049Z,968.54
2018-04-01T11:32:26.036Z,968.57
2018-04-01T11:33:26.026Z,968.48
2018-04-01T11:34:26.012Z,968.60
2018-04-01T11:35:26.000Z,968.52
2018-04-01T11:36:25.989Z,968.49
2018-04-01T11:37:25.975Z,968.51
2018-04-01T11:38:25.964Z,968.53
2018-04-01T11:39:25.965Z,968.53
2018-04-01T11:40:25.940Z,968.55
2018-04-01T11:41:25.927Z,968.60
2018-04-01T11:42:25.922Z,968.56
2018-04-01T11:43:25.910Z,968.56
2018-04-01T11:44:25.900Z,968.58
2018-04-01T11:45:25.880Z,968.56
2018-04-01T11:46:25.870Z,968.61
2018-04-01T11:47:25.865Z,968.61
2018-04-01T11:48:25.856Z,968.55
2018-04-01T11:49:25.865Z,968.66
2018-04-01T11:50:25.831Z,968.66
2018-04-01T11:51:25.823Z,968.56
2018-04-01T11:52:25.809Z,968.54
2018-04-01T11:53:25.798Z,968.59
2018-04-01T11:54:25.786Z,968.54
2018-04-01T11:55:25.775Z,968.51
2018-04-01T11:56:25.756Z,968.54
2018-04-01T11:57:25.754Z,968.52
2018-04-01T11:58:25.739Z,968.50
2018-04-01T11:59:25.725Z,968.56
2018-04-01T12:00:25.714Z,968.55
2018-04-01T12:01:25.705Z,968.54
2018-04-01T12:02:25.694Z,968.61
2018-04-01T12:03:25.693Z,968.61
2018-04-01T12:04:25.673Z,968.54
2018-04-01T12:05:25.663Z,968.57
2018-04-01T12:06:25.652Z,968.59
2018-04-01T12:07:25.647Z,968.56
2018-04-01T12:08:25.631Z,968.48
2018-04-01T12:09:25.623Z,968.49
2018-04-01T12:10:25.611Z,968.53
2018-04-01T12:11:25.606Z,968.48
2018-04-01T12:12:25.588Z,968.51
2018-04-01T12:13:25.581Z,968.54
2018-04-01T12:14:25.578Z,968.50
2018-04-01T12:15:25.562Z,968.55
2018-04-01T12:16:25.555Z,968.53
2018-04-01T12:17:25.536Z,968.54
2018-04-01T12:18:25.533Z,968.54
2018-04-01T12:19:25.529Z,968.58
2018-04-01T12:20:25.505Z,968.58
2018-04-01T12:21:25.496Z,968.60
2018-04-01T12:22:25.486Z,968.66
2018-04-01T12:23:25.474Z,968.61
2018-04-01T12:24:25.466Z,968.65
2018-04-01T12:25:25.467Z,968.64
2018-04-01T12:26:25.445Z,968.64
2018-04-01T12:27:25.434Z,968.67
2018-04-01T12:28:25.434Z,968.62
2018-04-01T12:29:25.410Z,968.64